Time;durP1;ratioP1;P1;durP2;ratioP2;P2;SDS_P1;SDS_P2;PMS_P1;PMS_P2;Temp;Humidity;BMP_temperature;BMP_pressure;BME280_temperature;BME280_humidity;BME280_pressure;Samples;Min_cycle;Max_cycle;Signal;HPM_P1;HPM_P2
2023/10/31 00:02:20;;;;;;;74.30;11.15;;;;;;;;;;5028688;28;20033;-39
2023/10/31 00:04:47;;;;;;;57.75;9.88;;;;;;;;;;5014861;28;20499;-38
2023/10/31 00:07:14;;;;;;;85.55;11.57;;;;;;;;;;5014741;28;20034;-39
2023/10/31 00:09:41;;;;;;;74.80;10.80;;;;;;;;;;5003136;28;20037;-39
2023/10/31 00:12:08;;;;;;;76.22;11.80;;;;;;;;;;5014419;28;20033;-40
2023/10/31 00:14:35;;;;;;;56.33;10.82;;;;;;;;;;5027520;28;20104;-41
2023/10/31 00:17:02;;;;;;;64.43;11.00;;;;;;;;;;5016843;28;20053;-39
2023/10/31 00:19:29;;;;;;;80.82;13.55;;;;;;;;;;5021982;28;20029;-40
2023/10/31 00:21:56;;;;;;;74.38;12.75;;;;;;;;;;5023128;28;20067;-40
2023/10/31 00:24:23;;;;;;;72.65;11.88;;;;;;;;;;5013608;28;20038;-39
2023/10/31 00:26:50;;;;;;;74.35;11.43;;;;;;;;;;5014027;28;20026;-38
2023/10/31 00:29:17;;;;;;;71.13;11.98;;;;;;;;;;5016124;28;20045;-40
2023/10/31 00:31:45;;;;;;;71.20;12.80;;;;;;;;;;5021612;28;20495;-39
2023/10/31 00:34:12;;;;;;;55.25;10.15;;;;;;;;;;5020230;28;20025;-40
2023/10/31 00:36:39;;;;;;;75.78;13.27;;;;;;;;;;5021280;28;20030;-39
2023/10/31 00:39:06;;;;;;;66.45;12.73;;;;;;;;;;5020819;28;20380;-41
2023/10/31 00:41:33;;;;;;;68.05;12.85;;;;;;;;;;5030364;28;20030;-40
2023/10/31 00:44:00;;;;;;;83.32;14.10;;;;;;;;;;5028751;28;20036;-40
2023/10/31 00:46:27;;;;;;;72.82;14.43;;;;;;;;;;5021805;28;20399;-40
2023/10/31 00:48:55;;;;;;;73.32;13.77;;;;;;;;;;5025360;28;20044;-39
2023/10/31 00:51:22;;;;;;;55.47;12.57;;;;;;;;;;5030768;28;20037;-41
2023/10/31 00:53:49;;;;;;;75.18;12.75;;;;;;;;;;5031277;28;20115;-40
2023/10/31 00:56:16;;;;;;;68.10;12.85;;;;;;;;;;5031353;28;20025;-39
2023/10/31 00:58:43;;;;;;;59.25;11.73;;;;;;;;;;5031183;28;20468;-41
2023/10/31 01:01:10;;;;;;;54.40;11.32;;;;;;;;;;5030916;28;20073;-40
2023/10/31 01:03:37;;;;;;;56.17;11.50;;;;;;;;;;5031073;28;20128;-40
2023/10/31 01:06:04;;;;;;;57.15;12.13;;;;;;;;;;5027892;28;20069;-40
2023/10/31 01:08:31;;;;;;;52.15;10.23;;;;;;;;;;5022042;28;20033;-40
2023/10/31 01:10:58;;;;;;;49.00;11.13;;;;;;;;;;5007484;28;20029;-40
2023/10/31 01:13:26;;;;;;;51.35;10.75;;;;;;;;;;5026971;28;20088;-41
2023/10/31 01:15:53;;;;;;;50.40;11.60;;;;;;;;;;5020863;28;20038;-41
2023/10/31 01:18:20;;;;;;;52.10;10.82;;;;;;;;;;5030383;28;20025;-41
2023/10/31 01:20:47;;;;;;;52.72;11.18;;;;;;;;;;5028386;28;20034;-42
2023/10/31 01:23:14;;;;;;;50.10;9.85;;;;;;;;;;5010994;28;20092;-47
2023/10/31 01:25:43;;;;;;;38.90;9.43;;;;;;;;;;5011957;28;20033;-44
2023/10/31 01:28:10;;;;;;;52.35;10.77;;;;;;;;;;5013607;28;20080;-43
2023/10/31 01:30:37;;;;;;;48.13;10.20;;;;;;;;;;5030422;28;20045;-45
2023/10/31 01:33:05;;;;;;;54.10;10.25;;;;;;;;;;5030180;28;20036;-43
2023/10/31 01:35:33;;;;;;;49.60;10.05;;;;;;;;;;5012687;28;20128;-43
2023/10/31 01:38:00;;;;;;;43.42;10.13;;;;;;;;;;5030582;28;20044;-43
2023/10/31 01:40:27;;;;;;;39.90;8.68;;;;;;;;;;5030519;28;20037;-43
2023/10/31 01:42:54;;;;;;;51.17;9.00;;;;;;;;;;5027736;28;20392;-45
2023/10/31 01:45:21;;;;;;;40.78;9.38;;;;;;;;;;5030493;28;20025;-44
2023/10/31 01:47:49;;;;;;;53.17;10.95;;;;;;;;;;5029742;28;20079;-42
2023/10/31 01:50:18;;;;;;;49.28;9.30;;;;;;;;;;5030587;28;20059;-41
2023/10/31 01:52:45;;;;;;;45.47;9.45;;;;;;;;;;5027649;28;20033;-42
2023/10/31 01:55:12;;;;;;;30.20;8.27;;;;;;;;;;5029993;28;20041;-42
2023/10/31 01:57:40;;;;;;;50.00;9.10;;;;;;;;;;5027711;28;20029;-43
2023/10/31 02:00:07;;;;;;;42.08;8.35;;;;;;;;;;5030430;28;20033;-42
2023/10/31 02:02:35;;;;;;;38.28;8.32;;;;;;;;;;5030412;28;20045;-42
2023/10/31 02:05:02;;;;;;;35.15;8.02;;;;;;;;;;5034066;28;20557;-42
2023/10/31 02:07:29;;;;;;;39.03;8.65;;;;;;;;;;5034068;28;20045;-42
2023/10/31 02:09:56;;;;;;;39.70;9.23;;;;;;;;;;5034032;28;20029;-43
2023/10/31 02:12:32;;;;;;;43.78;9.32;;;;;;;;;;5034026;28;20040;-42
2023/10/31 02:14:59;;;;;;;49.38;8.98;;;;;;;;;;5033843;28;20063;-42
2023/10/31 02:17:26;;;;;;;38.40;8.40;;;;;;;;;;5033938;28;20036;-45
2023/10/31 02:19:53;;;;;;;32.20;7.97;;;;;;;;;;5033882;28;20029;-41
2023/10/31 02:22:20;;;;;;;40.45;9.25;;;;;;;;;;5031029;28;20037;-41
2023/10/31 02:24:47;;;;;;;38.25;7.70;;;;;;;;;;5033798;28;20033;-45
2023/10/31 02:27:14;;;;;;;44.53;7.93;;;;;;;;;;5033916;28;20720;-42
2023/10/31 02:29:41;;;;;;;37.35;8.55;;;;;;;;;;5031290;28;20025;-43
2023/10/31 02:32:09;;;;;;;36.95;8.52;;;;;;;;;;5033779;28;20021;-41
2023/10/31 02:34:36;;;;;;;32.90;7.72;;;;;;;;;;5033744;28;20029;-41
2023/10/31 02:37:03;;;;;;;33.67;8.50;;;;;;;;;;5034255;28;20029;-41
2023/10/31 02:39:30;;;;;;;32.97;7.80;;;;;;;;;;5034161;28;20511;-41
2023/10/31 02:41:57;;;;;;;29.63;7.70;;;;;;;;;;5034071;28;20060;-41
2023/10/31 02:44:24;;;;;;;32.30;7.00;;;;;;;;;;5034104;28;20033;-42
2023/10/31 02:46:51;;;;;;;37.00;7.45;;;;;;;;;;5034107;28;20125;-42
2023/10/31 02:49:18;;;;;;;34.55;8.02;;;;;;;;;;5034092;28;20128;-42
2023/10/31 02:51:45;;;;;;;31.10;7.18;;;;;;;;;;5033963;28;20061;-42
2023/10/31 02:54:13;;;;;;;31.25;7.57;;;;;;;;;;5033956;28;20116;-41
2023/10/31 02:56:40;;;;;;;32.05;7.82;;;;;;;;;;5033410;28;20021;-42
2023/10/31 02:59:07;;;;;;;37.78;8.07;;;;;;;;;;5033088;28;20041;-41
2023/10/31 03:01:34;;;;;;;30.40;8.20;;;;;;;;;;5033209;28;20124;-42
2023/10/31 03:04:01;;;;;;;40.28;8.40;;;;;;;;;;5033202;28;20419;-43
2023/10/31 03:06:28;;;;;;;34.97;7.75;;;;;;;;;;5033026;28;20022;-42
2023/10/31 03:08:55;;;;;;;34.75;8.02;;;;;;;;;;5032964;28;20029;-41
2023/10/31 03:11:26;;;;;;;32.97;7.25;;;;;;;;;;5015223;28;20120;-43
2023/10/31 03:13:53;;;;;;;34.08;7.10;;;;;;;;;;5030732;28;20033;-44
2023/10/31 03:16:21;;;;;;;31.00;7.15;;;;;;;;;;5032961;28;20018;-42
2023/10/31 03:18:48;;;;;;;29.77;7.65;;;;;;;;;;5032804;28;20026;-43
2023/10/31 03:21:15;;;;;;;28.15;7.07;;;;;;;;;;5032443;28;20030;-42
2023/10/31 03:23:49;;;;;;;29.75;7.05;;;;;;;;;;5032733;28;20029;-42
2023/10/31 03:26:19;;;;;;;30.83;7.45;;;;;;;;;;5031129;28;20120;-41
2023/10/31 03:28:46;;;;;;;28.52;6.78;;;;;;;;;;5032460;28;20025;-43
2023/10/31 03:31:14;;;;;;;35.15;7.03;;;;;;;;;;5032682;28;20026;-42
2023/10/31 03:33:41;;;;;;;29.33;7.25;;;;;;;;;;5032578;28;20079;-43
2023/10/31 03:36:09;;;;;;;24.95;7.00;;;;;;;;;;5029960;28;20416;-42
2023/10/31 03:38:37;;;;;;;31.88;7.35;;;;;;;;;;5014883;28;20038;-42
2023/10/31 03:41:04;;;;;;;28.05;7.18;;;;;;;;;;5032304;28;20041;-43
2023/10/31 03:43:31;;;;;;;22.48;6.97;;;;;;;;;;5032327;28;20561;-42
2023/10/31 03:45:58;;;;;;;31.45;7.20;;;;;;;;;;5029917;28;20479;-43
2023/10/31 03:48:25;;;;;;;34.65;7.32;;;;;;;;;;5032370;28;20033;-43
2023/10/31 03:50:52;;;;;;;32.30;7.78;;;;;;;;;;5032146;28;20400;-43
2023/10/31 03:53:19;;;;;;;26.27;6.88;;;;;;;;;;5032297;28;20108;-44
2023/10/31 03:55:46;;;;;;;29.00;6.80;;;;;;;;;;5032268;28;20508;-42
2023/10/31 03:58:13;;;;;;;31.95;7.00;;;;;;;;;;5031994;28;20028;-41
2023/10/31 04:00:41;;;;;;;29.42;7.03;;;;;;;;;;5032020;28;20502;-41
2023/10/31 04:03:08;;;;;;;24.88;6.65;;;;;;;;;;5032025;28;20041;-42
2023/10/31 04:05:35;;;;;;;22.02;6.10;;;;;;;;;;5031840;28;20424;-42
2023/10/31 04:08:02;;;;;;;28.27;6.55;;;;;;;;;;5031975;28;20037;-44
2023/10/31 04:10:29;;;;;;;27.08;6.43;;;;;;;;;;5031937;28;20041;-42
2023/10/31 04:12:56;;;;;;;27.42;7.38;;;;;;;;;;5031780;28;20476;-42
2023/10/31 04:15:23;;;;;;;30.10;6.57;;;;;;;;;;5014028;28;20454;-42
2023/10/31 04:17:50;;;;;;;29.48;6.30;;;;;;;;;;5014035;28;20040;-42
2023/10/31 04:20:17;;;;;;;25.77;6.43;;;;;;;;;;5029112;28;20037;-43
2023/10/31 04:22:44;;;;;;;23.45;6.35;;;;;;;;;;5031359;28;20073;-43
2023/10/31 04:25:11;;;;;;;23.52;6.13;;;;;;;;;;5031110;28;20029;-43
2023/10/31 04:27:38;;;;;;;26.58;6.80;;;;;;;;;;5029108;28;20098;-42
2023/10/31 04:30:06;;;;;;;20.38;6.00;;;;;;;;;;5031559;28;20026;-43
2023/10/31 04:32:33;;;;;;;25.50;6.35;;;;;;;;;;5031318;28;20144;-43
2023/10/31 04:35:00;;;;;;;24.35;6.25;;;;;;;;;;5031445;28;20032;-41
2023/10/31 04:37:27;;;;;;;24.40;6.82;;;;;;;;;;5031537;28;20124;-44
2023/10/31 04:39:54;;;;;;;19.83;5.63;;;;;;;;;;5031267;28;20025;-42
2023/10/31 04:42:22;;;;;;;22.75;6.07;;;;;;;;;;5031246;28;20039;-42
2023/10/31 04:44:49;;;;;;;18.92;5.78;;;;;;;;;;5031292;28;20041;-42
2023/10/31 04:47:16;;;;;;;23.25;5.25;;;;;;;;;;5031201;28;20116;-42
2023/10/31 04:49:43;;;;;;;24.75;6.57;;;;;;;;;;5031335;28;20025;-42
2023/10/31 04:52:10;;;;;;;21.48;6.05;;;;;;;;;;5031166;28;20075;-42
2023/10/31 04:54:37;;;;;;;23.77;5.90;;;;;;;;;;5010698;28;20439;-43
2023/10/31 04:57:04;;;;;;;22.13;6.15;;;;;;;;;;5031066;28;20041;-42
2023/10/31 04:59:32;;;;;;;27.38;6.38;;;;;;;;;;5030907;28;20025;-42
2023/10/31 05:01:59;;;;;;;18.90;5.40;;;;;;;;;;5028409;28;20034;-42
2023/10/31 05:04:26;;;;;;;22.52;5.40;;;;;;;;;;5031125;28;20052;-42
2023/10/31 05:06:53;;;;;;;19.50;5.82;;;;;;;;;;5031040;28;20041;-43
2023/10/31 05:09:20;;;;;;;18.38;5.38;;;;;;;;;;5031102;28;20571;-43
2023/10/31 05:11:47;;;;;;;21.40;5.55;;;;;;;;;;5030816;28;20384;-42
2023/10/31 05:14:14;;;;;;;26.08;5.55;;;;;;;;;;5030923;28;20503;-42
2023/10/31 05:16:42;;;;;;;18.90;5.30;;;;;;;;;;5030995;28;20033;-42
2023/10/31 05:19:09;;;;;;;18.60;5.15;;;;;;;;;;5031029;28;20030;-42
2023/10/31 05:21:36;;;;;;;23.10;6.07;;;;;;;;;;5030515;28;20410;-42
2023/10/31 05:24:03;;;;;;;19.05;5.47;;;;;;;;;;5030824;28;20030;-43
2023/10/31 05:26:30;;;;;;;19.80;6.05;;;;;;;;;;5030882;28;20029;-43
2023/10/31 05:28:58;;;;;;;20.98;5.68;;;;;;;;;;5031110;28;20040;-44
2023/10/31 05:31:25;;;;;;;21.38;5.68;;;;;;;;;;5030907;28;20476;-41
2023/10/31 05:33:53;;;;;;;17.95;4.93;;;;;;;;;;5030776;28;20017;-43
2023/10/31 05:36:23;;;;;;;23.50;5.55;;;;;;;;;;5028341;28;20559;-42
2023/10/31 05:38:50;;;;;;;17.25;5.13;;;;;;;;;;5033594;28;20026;-43
2023/10/31 05:41:17;;;;;;;14.18;4.75;;;;;;;;;;5034537;28;20040;-42
2023/10/31 05:43:44;;;;;;;21.40;5.53;;;;;;;;;;5034706;28;20026;-42
2023/10/31 05:46:13;;;;;;;19.95;5.00;;;;;;;;;;5016911;28;20025;-42
2023/10/31 05:48:41;;;;;;;18.75;5.10;;;;;;;;;;5032148;28;20037;-42
2023/10/31 05:51:15;;;;;;;18.45;4.80;;;;;;;;;;5034498;28;20021;-42
2023/10/31 05:53:42;;;;;;;15.70;4.88;;;;;;;;;;5032336;28;20419;-43
2023/10/31 05:56:10;;;;;;;18.10;5.32;;;;;;;;;;5034449;28;20055;-42
2023/10/31 05:58:38;;;;;;;18.38;5.05;;;;;;;;;;5016587;28;20232;-43
2023/10/31 06:01:05;;;;;;;13.45;4.82;;;;;;;;;;5033096;28;20103;-42
2023/10/31 06:03:32;;;;;;;14.77;4.20;;;;;;;;;;5034422;28;20048;-42
2023/10/31 06:05:59;;;;;;;14.98;4.75;;;;;;;;;;5031781;28;20041;-42
2023/10/31 06:08:29;;;;;;;17.35;4.82;;;;;;;;;;5034202;28;20026;-42
2023/10/31 06:10:57;;;;;;;20.52;5.65;;;;;;;;;;5034182;28;20017;-42
2023/10/31 06:13:28;;;;;;;13.45;4.40;;;;;;;;;;5034159;28;20025;-43
2023/10/31 06:15:55;;;;;;;16.33;5.15;;;;;;;;;;5034133;28;20056;-42
2023/10/31 06:18:22;;;;;;;14.45;4.35;;;;;;;;;;5034075;28;20029;-42
2023/10/31 06:20:49;;;;;;;21.65;4.63;;;;;;;;;;5033857;28;20017;-42
2023/10/31 06:23:16;;;;;;;11.07;4.30;;;;;;;;;;5033697;28;20034;-43
2023/10/31 06:25:43;;;;;;;13.48;4.63;;;;;;;;;;5033907;28;20021;-42
2023/10/31 06:28:10;;;;;;;18.48;4.32;;;;;;;;;;5033912;28;20032;-41
2023/10/31 06:30:37;;;;;;;17.42;4.60;;;;;;;;;;5033658;28;20083;-42
2023/10/31 06:33:04;;;;;;;14.70;4.38;;;;;;;;;;5033841;28;20020;-43
2023/10/31 06:35:31;;;;;;;21.60;4.60;;;;;;;;;;5033774;28;20029;-43
2023/10/31 06:37:59;;;;;;;13.10;4.68;;;;;;;;;;5033945;28;20057;-43
2023/10/31 06:40:26;;;;;;;16.20;4.47;;;;;;;;;;5033804;28;20033;-43
2023/10/31 06:42:53;;;;;;;15.13;4.35;;;;;;;;;;5033589;28;21477;-42
2023/10/31 06:45:21;;;;;;;11.10;4.20;;;;;;;;;;5031121;28;20117;-42
2023/10/31 06:47:48;;;;;;;13.27;4.40;;;;;;;;;;5033402;28;20033;-41
2023/10/31 06:50:15;;;;;;;8.90;3.72;;;;;;;;;;5032901;28;20072;-42
2023/10/31 06:52:42;;;;;;;13.13;3.95;;;;;;;;;;5033423;28;20021;-42
2023/10/31 06:55:09;;;;;;;13.05;3.22;;;;;;;;;;5033375;28;20076;-43
2023/10/31 06:57:36;;;;;;;9.48;3.50;;;;;;;;;;5033232;28;20423;-43
2023/10/31 07:00:03;;;;;;;10.73;3.90;;;;;;;;;;5033482;28;20087;-43
2023/10/31 07:02:30;;;;;;;12.50;4.32;;;;;;;;;;5032815;28;20480;-41
2023/10/31 07:04:57;;;;;;;12.25;4.15;;;;;;;;;;5033113;28;20113;-42
2023/10/31 07:07:24;;;;;;;11.52;4.10;;;;;;;;;;5033140;28;20029;-42
2023/10/31 07:09:51;;;;;;;13.57;3.88;;;;;;;;;;5033169;28;20109;-43
2023/10/31 07:12:18;;;;;;;8.63;3.17;;;;;;;;;;5032890;28;20029;-45
2023/10/31 07:14:45;;;;;;;10.25;3.58;;;;;;;;;;5032911;28;20380;-43
2023/10/31 07:17:12;;;;;;;12.50;3.40;;;;;;;;;;5032992;28;20486;-45
2023/10/31 07:19:39;;;;;;;12.18;3.80;;;;;;;;;;5030300;28;20029;-42
2023/10/31 07:22:06;;;;;;;10.07;3.42;;;;;;;;;;5032557;28;20045;-44
2023/10/31 07:24:34;;;;;;;8.82;3.60;;;;;;;;;;5032881;28;20037;-42
2023/10/31 07:27:01;;;;;;;10.32;4.13;;;;;;;;;;5030208;28;20041;-41
2023/10/31 07:29:28;;;;;;;9.45;3.67;;;;;;;;;;5032788;28;20057;-42
2023/10/31 07:31:54;;;;;;;11.23;3.72;;;;;;;;;;5032584;28;20044;-42
2023/10/31 07:34:21;;;;;;;10.93;3.75;;;;;;;;;;5032620;28;20027;-41
2023/10/31 07:36:48;;;;;;;11.68;3.55;;;;;;;;;;5015066;28;20483;-42
2023/10/31 07:39:15;;;;;;;10.48;3.72;;;;;;;;;;5032522;28;20091;-41
2023/10/31 07:41:42;;;;;;;13.48;3.97;;;;;;;;;;5032333;28;20029;-43
2023/10/31 07:44:09;;;;;;;9.63;3.80;;;;;;;;;;5032512;28;20075;-42
2023/10/31 07:46:36;;;;;;;12.13;3.30;;;;;;;;;;5032372;28;20033;-42
2023/10/31 07:49:03;;;;;;;8.25;3.08;;;;;;;;;;5032515;28;20017;-44
2023/10/31 07:51:30;;;;;;;11.68;3.30;;;;;;;;;;5032305;28;20036;-42
2023/10/31 07:53:58;;;;;;;8.07;3.03;;;;;;;;;;5032188;28;20475;-42
2023/10/31 07:56:26;;;;;;;10.38;3.30;;;;;;;;;;5032113;28;20040;-42
2023/10/31 07:58:54;;;;;;;7.70;2.70;;;;;;;;;;5032242;28;20029;-42
2023/10/31 08:01:21;;;;;;;7.75;3.30;;;;;;;;;;5028633;28;20167;-42
2023/10/31 08:03:48;;;;;;;11.60;3.30;;;;;;;;;;5032137;28;20490;-41
2023/10/31 08:06:15;;;;;;;10.38;3.30;;;;;;;;;;5031847;28;20033;-42
2023/10/31 08:08:42;;;;;;;7.78;2.85;;;;;;;;;;5032082;28;20092;-43
2023/10/31 08:11:10;;;;;;;10.18;3.17;;;;;;;;;;5031892;28;20030;-42
2023/10/31 08:13:39;;;;;;;7.82;2.75;;;;;;;;;;5031826;28;20147;-43
2023/10/31 08:16:07;;;;;;;9.32;3.03;;;;;;;;;;5031916;28;20404;-42
2023/10/31 08:18:34;;;;;;;9.30;3.65;;;;;;;;;;5031863;28;20093;-43
2023/10/31 08:21:01;;;;;;;10.25;2.83;;;;;;;;;;5029037;28;20029;-42
2023/10/31 08:23:29;;;;;;;10.25;3.33;;;;;;;;;;5031521;28;20430;-43
2023/10/31 08:25:57;;;;;;;11.27;3.17;;;;;;;;;;5031608;28;20027;-44
2023/10/31 08:28:24;;;;;;;10.38;2.97;;;;;;;;;;5031673;28;20439;-44
2023/10/31 08:30:51;;;;;;;8.65;3.47;;;;;;;;;;5031474;28;20025;-41
2023/10/31 08:33:18;;;;;;;6.80;3.17;;;;;;;;;;5031524;28;20028;-43
2023/10/31 08:35:45;;;;;;;8.05;2.70;;;;;;;;;;5031462;28;20480;-42
2023/10/31 08:38:12;;;;;;;8.63;3.20;;;;;;;;;;5031529;28;20080;-42
2023/10/31 08:40:39;;;;;;;7.20;3.17;;;;;;;;;;5031319;28;20021;-43
2023/10/31 08:43:06;;;;;;;7.13;3.08;;;;;;;;;;5031310;28;20030;-42
2023/10/31 08:45:34;;;;;;;7.85;3.10;;;;;;;;;;5031215;28;20038;-44
2023/10/31 08:48:01;;;;;;;9.35;3.30;;;;;;;;;;5028774;28;20124;-42
2023/10/31 08:50:28;;;;;;;8.70;3.00;;;;;;;;;;5031243;28;20017;-42
2023/10/31 08:52:55;;;;;;;6.05;2.90;;;;;;;;;;5031317;28;20155;-42
2023/10/31 08:55:23;;;;;;;7.45;2.70;;;;;;;;;;5028657;28;20041;-42
2023/10/31 08:57:53;;;;;;;8.77;2.97;;;;;;;;;;5028086;28;20032;-42
2023/10/31 09:00:24;;;;;;;14.90;3.53;;;;;;;;;;5028142;28;20476;-43
2023/10/31 09:02:51;;;;;;;6.97;3.00;;;;;;;;;;5012848;28;20470;-43
2023/10/31 09:05:18;;;;;;;7.03;2.67;;;;;;;;;;5030950;28;20047;-42
2023/10/31 09:07:46;;;;;;;7.90;2.28;;;;;;;;;;5030945;28;20079;-44
2023/10/31 09:10:13;;;;;;;7.88;2.95;;;;;;;;;;5030915;28;20472;-42
2023/10/31 09:12:40;;;;;;;11.18;3.03;;;;;;;;;;5030599;28;20079;-43
2023/10/31 09:15:09;;;;;;;11.25;2.85;;;;;;;;;;5030999;28;20434;-42
2023/10/31 09:17:36;;;;;;;9.40;3.08;;;;;;;;;;5030807;28;20037;-41
2023/10/31 09:20:03;;;;;;;10.27;3.03;;;;;;;;;;5030781;28;20026;-43
2023/10/31 09:22:30;;;;;;;13.38;3.60;;;;;;;;;;5030644;28;20094;-43
2023/10/31 09:24:57;;;;;;;9.45;3.15;;;;;;;;;;5012999;28;20035;-42
2023/10/31 09:27:24;;;;;;;8.18;2.90;;;;;;;;;;5030843;28;20030;-41
2023/10/31 09:29:51;;;;;;;11.02;3.63;;;;;;;;;;5030480;28;20399;-41
2023/10/31 09:32:19;;;;;;;12.93;3.33;;;;;;;;;;5030488;28;20494;-41
2023/10/31 09:34:46;;;;;;;15.95;3.20;;;;;;;;;;5030698;28;20026;-44
2023/10/31 09:37:13;;;;;;;11.05;3.40;;;;;;;;;;5030344;28;20108;-43
2023/10/31 09:39:40;;;;;;;14.48;3.22;;;;;;;;;;5030594;28;20048;-44
2023/10/31 09:42:07;;;;;;;12.38;3.08;;;;;;;;;;5030181;28;20056;-44
2023/10/31 09:44:35;;;;;;;13.32;3.00;;;;;;;;;;5029222;28;20490;-42
2023/10/31 09:47:02;;;;;;;8.90;2.92;;;;;;;;;;5028665;28;20044;-43
2023/10/31 09:49:30;;;;;;;10.77;2.58;;;;;;;;;;5030487;28;20037;-43
2023/10/31 09:51:57;;;;;;;12.02;3.08;;;;;;;;;;5030055;28;20029;-43
2023/10/31 09:54:26;;;;;;;13.98;3.38;;;;;;;;;;5030190;28;20034;-42
2023/10/31 09:56:54;;;;;;;16.20;3.30;;;;;;;;;;5030549;28;20025;-44
2023/10/31 09:59:21;;;;;;;11.63;2.75;;;;;;;;;;5030485;28;20040;-43
2023/10/31 10:01:48;;;;;;;9.68;2.83;;;;;;;;;;5030402;28;20046;-43
2023/10/31 10:04:17;;;;;;;12.05;3.33;;;;;;;;;;5030556;28;20026;-43
2023/10/31 10:07:00;;;;;;;9.85;2.97;;;;;;;;;;5027601;28;20048;-42
2023/10/31 10:09:28;;;;;;;8.75;2.88;;;;;;;;;;5028440;28;20033;-43
2023/10/31 10:11:55;;;;;;;13.18;3.10;;;;;;;;;;5030754;28;20507;-43
2023/10/31 10:14:26;;;;;;;9.95;2.83;;;;;;;;;;5030748;28;20415;-44
2023/10/31 10:16:53;;;;;;;11.50;3.03;;;;;;;;;;5030836;28;20099;-42
2023/10/31 10:19:21;;;;;;;17.10;2.85;;;;;;;;;;5030011;28;20697;-42
2023/10/31 10:21:52;;;;;;;11.00;3.28;;;;;;;;;;5029802;28;20041;-42
2023/10/31 10:24:20;;;;;;;11.60;3.42;;;;;;;;;;5032096;28;20048;-42
2023/10/31 10:26:47;;;;;;;12.13;2.90;;;;;;;;;;5033772;28;20403;-44
2023/10/31 10:29:15;;;;;;;11.90;3.05;;;;;;;;;;5033805;28;20519;-44
2023/10/31 10:31:42;;;;;;;11.57;3.00;;;;;;;;;;5033622;28;20073;-41
2023/10/31 10:34:09;;;;;;;10.57;2.67;;;;;;;;;;5031126;28;20092;-43
2023/10/31 10:36:36;;;;;;;11.85;3.08;;;;;;;;;;5033718;28;20063;-43
2023/10/31 10:39:03;;;;;;;8.00;2.58;;;;;;;;;;5033687;28;20029;-43
2023/10/31 10:41:30;;;;;;;10.05;2.60;;;;;;;;;;5030691;28;20442;-44
2023/10/31 10:44:02;;;;;;;13.00;2.85;;;;;;;;;;5033963;28;20050;-42
2023/10/31 10:46:33;;;;;;;17.65;3.53;;;;;;;;;;5034102;28;20025;-42
2023/10/31 10:49:02;;;;;;;13.97;3.17;;;;;;;;;;5034111;28;20416;-42
2023/10/31 10:51:47;;;;;;;9.43;2.60;;;;;;;;;;5034040;28;20048;-42
2023/10/31 10:54:20;;;;;;;17.60;2.92;;;;;;;;;;5033787;28;20124;-42
2023/10/31 10:56:52;;;;;;;15.77;2.80;;;;;;;;;;5033973;28;20108;-43
2023/10/31 10:59:21;;;;;;;17.52;3.08;;;;;;;;;;5033832;28;20045;-42
2023/10/31 11:01:49;;;;;;;12.27;2.80;;;;;;;;;;5033801;28;20042;-42
2023/10/31 11:04:17;;;;;;;11.70;2.60;;;;;;;;;;5033412;28;20037;-43
2023/10/31 11:06:44;;;;;;;16.00;2.72;;;;;;;;;;5033248;28;20026;-43
2023/10/31 11:09:11;;;;;;;11.15;2.65;;;;;;;;;;5033596;28;20086;-42
2023/10/31 11:11:48;;;;;;;17.70;3.00;;;;;;;;;;5014575;28;20388;-43
2023/10/31 11:14:15;;;;;;;10.60;2.33;;;;;;;;;;5031235;28;20044;-42
2023/10/31 11:17:02;;;;;;;12.45;2.70;;;;;;;;;;5033246;28;20061;-42
2023/10/31 11:19:30;;;;;;;38.95;4.10;;;;;;;;;;5033095;28;20047;-42
2023/10/31 11:21:59;;;;;;;22.40;2.67;;;;;;;;;;5032861;28;20408;-36
2023/10/31 11:24:37;;;;;;;42.67;4.18;;;;;;;;;;5027020;28;20103;-41
2023/10/31 11:27:05;;;;;;;40.45;4.45;;;;;;;;;;5032785;28;20033;-44
2023/10/31 11:29:33;;;;;;;50.65;5.10;;;;;;;;;;5031567;28;20056;-44
2023/10/31 11:32:00;;;;;;;26.00;3.65;;;;;;;;;;5031090;28;20030;-44
2023/10/31 11:34:28;;;;;;;23.50;3.60;;;;;;;;;;5032863;28;20124;-44
2023/10/31 11:36:55;;;;;;;28.15;3.45;;;;;;;;;;5033099;28;20542;-45
2023/10/31 11:39:27;;;;;;;28.40;3.17;;;;;;;;;;5032981;28;20357;-45
2023/10/31 11:41:57;;;;;;;18.08;3.30;;;;;;;;;;5031229;28;20480;-45
2023/10/31 11:44:27;;;;;;;80.93;6.72;;;;;;;;;;5032191;28;20045;-35
2023/10/31 11:46:54;;;;;;;73.20;7.28;;;;;;;;;;5032184;28;20115;-43
2023/10/31 11:49:39;;;;;;;86.13;7.97;;;;;;;;;;5032591;28;20025;-43
2023/10/31 11:52:16;;;;;;;83.40;7.57;;;;;;;;;;5030865;28;20476;-38
2023/10/31 11:54:43;;;;;;;47.58;5.90;;;;;;;;;;5032409;28;20068;-34
2023/10/31 11:57:10;;;;;;;60.60;5.82;;;;;;;;;;5032401;28;20042;-34
2023/10/31 11:59:40;;;;;;;51.08;5.70;;;;;;;;;;5032399;28;20033;-36
2023/10/31 12:02:15;;;;;;;85.93;8.02;;;;;;;;;;5030696;28;20045;-33
2023/10/31 12:04:42;;;;;;;89.22;7.35;;;;;;;;;;5032043;28;20037;-34
2023/10/31 12:07:09;;;;;;;61.17;6.10;;;;;;;;;;5032264;28;20025;-32
2023/10/31 12:09:49;;;;;;;45.40;6.00;;;;;;;;;;5032180;28;20033;-38
2023/10/31 12:12:17;;;;;;;58.00;9.10;;;;;;;;;;5014334;28;20033;-32
2023/10/31 12:14:44;;;;;;;73.95;8.50;;;;;;;;;;5032344;28;20056;-33
2023/10/31 12:17:10;;;;;;;98.15;9.82;;;;;;;;;;5032468;28;20029;-34
2023/10/31 12:19:38;;;;;;;90.30;10.45;;;;;;;;;;5032373;28;20116;-32
2023/10/31 12:22:14;;;;;;;111.70;12.23;;;;;;;;;;5031938;28;20109;-34
2023/10/31 12:24:41;;;;;;;88.55;10.25;;;;;;;;;;5032305;28;20029;-32
2023/10/31 12:27:08;;;;;;;103.28;12.32;;;;;;;;;;5032270;28;20040;-32
2023/10/31 12:29:35;;;;;;;93.55;11.25;;;;;;;;;;5032399;28;20033;-33
2023/10/31 12:32:02;;;;;;;100.22;10.90;;;;;;;;;;5032037;28;20432;-34
2023/10/31 12:34:29;;;;;;;101.57;11.52;;;;;;;;;;5032051;28;20037;-33
2023/10/31 12:36:59;;;;;;;83.55;10.55;;;;;;;;;;5032088;28;20025;-33
2023/10/31 12:39:26;;;;;;;86.60;9.55;;;;;;;;;;5031978;28;20030;-33
2023/10/31 12:41:54;;;;;;;74.22;9.70;;;;;;;;;;5031734;28;20047;-34
2023/10/31 12:44:28;;;;;;;65.40;8.77;;;;;;;;;;5031942;28;20053;-34
2023/10/31 12:46:55;;;;;;;57.20;8.75;;;;;;;;;;5031475;28;20034;-32
2023/10/31 12:49:23;;;;;;;60.42;8.70;;;;;;;;;;5014093;28;20060;-33
2023/10/31 12:52:03;;;;;;;57.35;9.05;;;;;;;;;;5031769;28;20064;-33
2023/10/31 12:54:37;;;;;;;62.88;9.07;;;;;;;;;;5031828;28;20025;-36
2023/10/31 12:57:05;;;;;;;59.30;8.57;;;;;;;;;;5031844;28;20021;-33
2023/10/31 12:59:33;;;;;;;53.47;7.85;;;;;;;;;;5031739;28;20059;-33
2023/10/31 13:02:00;;;;;;;52.60;8.93;;;;;;;;;;5031573;28;20028;-32
2023/10/31 13:04:31;;;;;;;52.90;8.75;;;;;;;;;;5031735;28;20030;-33
2023/10/31 13:06:59;;;;;;;49.78;7.15;;;;;;;;;;5031638;28;20034;-34
2023/10/31 13:09:52;;;;;;;40.65;6.15;;;;;;;;;;5031683;28;20025;-35
2023/10/31 13:12:19;;;;;;;36.83;7.15;;;;;;;;;;5027565;28;20064;-33
2023/10/31 13:14:46;;;;;;;42.67;6.50;;;;;;;;;;5031542;28;20476;-32
2023/10/31 13:17:13;;;;;;;39.38;7.07;;;;;;;;;;5031558;28;20484;-32
2023/10/31 13:19:41;;;;;;;42.03;7.40;;;;;;;;;;5031408;28;20384;-32
2023/10/31 13:22:08;;;;;;;35.50;5.18;;;;;;;;;;5031272;28;20046;-33
2023/10/31 13:24:35;;;;;;;41.38;5.63;;;;;;;;;;5031494;28;20026;-33
2023/10/31 13:27:03;;;;;;;31.55;6.18;;;;;;;;;;5031420;28;20037;-33
2023/10/31 13:29:30;;;;;;;31.27;5.47;;;;;;;;;;5031346;28;20026;-34
2023/10/31 13:31:57;;;;;;;42.45;6.20;;;;;;;;;;5031314;28;20025;-36
2023/10/31 13:34:24;;;;;;;31.80;5.35;;;;;;;;;;5031421;28;20030;-32
2023/10/31 13:36:52;;;;;;;31.88;5.00;;;;;;;;;;5031283;28;20045;-33
2023/10/31 13:39:21;;;;;;;30.17;5.07;;;;;;;;;;5031454;28;20472;-33
2023/10/31 13:41:48;;;;;;;31.23;5.30;;;;;;;;;;5031100;28;20381;-32
2023/10/31 13:44:15;;;;;;;28.88;4.65;;;;;;;;;;5031330;28;20025;-33
2023/10/31 13:46:42;;;;;;;31.17;5.40;;;;;;;;;;5031261;28;20030;-33
2023/10/31 13:49:09;;;;;;;34.67;5.38;;;;;;;;;;5031226;28;20053;-35
2023/10/31 13:51:36;;;;;;;28.33;4.50;;;;;;;;;;5031018;28;20427;-32
2023/10/31 13:54:03;;;;;;;29.60;5.57;;;;;;;;;;5031238;28;20025;-33
2023/10/31 13:56:30;;;;;;;25.33;4.50;;;;;;;;;;5031213;28;20022;-35
2023/10/31 13:58:57;;;;;;;29.30;4.70;;;;;;;;;;5032425;28;20480;-33
2023/10/31 14:01:25;;;;;;;25.88;4.47;;;;;;;;;;5034811;28;20495;-34
2023/10/31 14:03:52;;;;;;;23.63;4.55;;;;;;;;;;5034857;28;20108;-34
2023/10/31 14:06:19;;;;;;;20.58;4.32;;;;;;;;;;5034890;28;20026;-35
2023/10/31 14:08:46;;;;;;;16.90;3.47;;;;;;;;;;5034740;28;20436;-33
2023/10/31 14:11:13;;;;;;;26.67;3.65;;;;;;;;;;5034714;28;20103;-34
2023/10/31 14:13:41;;;;;;;19.42;3.47;;;;;;;;;;5034789;28;20357;-32
2023/10/31 14:16:08;;;;;;;21.48;3.38;;;;;;;;;;5034551;28;20043;-35
2023/10/31 14:18:35;;;;;;;13.45;2.92;;;;;;;;;;5034734;28;20021;-33
2023/10/31 14:21:03;;;;;;;20.40;3.40;;;;;;;;;;5034548;28;20045;-32
2023/10/31 14:23:30;;;;;;;20.52;2.92;;;;;;;;;;5034324;28;20067;-34
2023/10/31 14:25:57;;;;;;;18.55;3.50;;;;;;;;;;5034436;28;20076;-34
2023/10/31 14:28:24;;;;;;;15.30;2.75;;;;;;;;;;5034477;28;20053;-32
2023/10/31 14:30:54;;;;;;;20.15;3.38;;;;;;;;;;5034452;28;20014;-32
2023/10/31 14:33:21;;;;;;;18.73;2.50;;;;;;;;;;5034390;28;20037;-33